Route Details

Aircraft Information
Group: North America Fleet
Types: B738, B752, B762, B763
Route Data
Distance: 788nm
Duration: 2h 20m
Origin METAR: KMSP 072253Z 23008KT 10SM FEW250 01/M06 A3011 RMK AO2 SLP204 T00061061
Dest. METAR: KIAD 072252Z 18005KT 10SM BKN150 OVC200 10/00 A3016 RMK AO2 SLP216 T01000000
Freight Data
(for Feb 7, 2023)
Load Factor:
70%
Manifested Cargo: 36,434lbs
Financial History
Total Freight: 246,210lbs
Average Load: 0lbs/flt
Fuel Used: 102,619lbs
Avg. Fuel Used: 0lbs/flt
Fuel Expense: $52,831
Avg. Fuel Expense: $0
Avg. Fuel Cost: $0/lbs
Total Gross Income: $645,070
Pilot Pay: $586
Total Expenses: $136,329
Total Revenue: $453,208
Average Revenue: $0

Capitol Logistics 319




KMSP
Minneapolis-St Paul International Airport
Minneapolis, Minnesota
KIAD
Washington Dulles International Airport
Dulles, Virginia

Activity Log

Date Flight Route Aircraft Duration
01/24/2023 CPX319 COULT7 DLL J34 DJB DCT MGW GIBBZ4 B738 2h 08m
01/23/2023 CPX319 COULT7 DLL J34 DJB MGW GIBBZ4 B763 2h 27m
07/20/2022 CPX319 COULT7 DLL J34 DJB DCT MGW GIBBZ4 B752 2h 04m
07/17/2022 CPX319 COULT7 DLL J34 DJB DCT MGW GIBBZ4 B763 2h 18m